Rouyn-Noranda Airport

Airport
ICAO code: 
CYUY
IATA Code: 
YUY
Summary
ICAO Region: 
NAM
Territory: 
Location: 
Rouyn-Noranda, Quebec,
Serving: 
Rouyn-Noranda
Elevation: 
988 ft
Coordinates: 
Aerial View: 
48° 12' 29.506" N, 78° 49' 45.973" W
Metar
Observation
CYUY 262300Z 33012G18KT 15SM -SN BKN011 M11/M13 A2989 RMK SC7 SLP148
Station
Rouyn Airport
Date/Time
2021-11-26 23:00:00
Wind direction
330°
Wind speed
12 kts
Lowest cloud amount
broken clouds
Temperature
-11°C
Dew point
-13°C
Humidity
85%
Weather condition
light snow

Description

Rouyn-Noranda Airport, is located 7.5 nm east southeast of Rouyn-Noranda, Quebec, Canada.

Climatology

Humid Continental climate (Köppen climate classification Dfb) - Variable weather patterns and a large seasonal temperature variance. Summers are often warm and humid with frequent thunderstorms and winters can be very cold with frequent snowfall and persistent snow cover.

Runways

Designator Length Width Surface Rops
8/26 2281 46 ASP No/No
Airport map: 
Aerial View: 

Accidents and Serious Incidents at or in the vicinity of CYUY

SKYbrary Partners:

Safety knowledge contributed by: